createdAt,value
2016-02-21T00:00:57.616Z,56.32
2016-02-21T00:01:57.572Z,57.56
2016-02-21T00:02:57.590Z,58.23
2016-02-21T00:03:57.547Z,59.47
2016-02-21T00:04:57.533Z,60.42
2016-02-21T00:05:57.489Z,56.89
2016-02-21T00:06:57.461Z,62.15
2016-02-21T00:07:57.432Z,61.95
2016-02-21T00:08:57.404Z,62.43
2016-02-21T00:09:57.374Z,65.96
2016-02-21T00:10:57.362Z,60.9
2016-02-21T00:11:57.349Z,61.19
2016-02-21T00:12:57.321Z,64.62
2016-02-21T00:13:57.292Z,61.1
2016-02-21T00:14:57.263Z,61.29
2016-02-21T00:15:57.328Z,61.29
2016-02-21T00:16:57.206Z,61.38
2016-02-21T00:17:57.209Z,57.65
2016-02-21T00:18:57.196Z,60.9
2016-02-21T00:19:57.137Z,58.51
2016-02-21T00:20:57.139Z,60.81
2016-02-21T00:21:57.095Z,57.28
2016-02-21T00:22:57.066Z,62.43
2016-02-21T00:23:57.037Z,61
2016-02-21T00:24:57.009Z,60.33
2016-02-21T00:25:56.980Z,65.2
2016-02-21T00:26:56.968Z,59.56
2016-02-21T00:27:56.939Z,59.38
2016-02-21T00:28:56.926Z,61.29
2016-02-21T00:29:56.897Z,65.2
2016-02-21T00:30:56.869Z,60.71
2016-02-21T00:31:56.825Z,57.94
2016-02-21T00:32:56.812Z,61.1
2016-02-21T00:33:56.799Z,64.15
2016-02-21T00:34:56.771Z,63.48
2016-02-21T00:35:56.742Z,62.15
2016-02-21T00:36:56.713Z,59.28
2016-02-21T00:37:56.699Z,59.47
2016-02-21T00:38:56.671Z,58.61
2016-02-21T00:39:56.644Z,59.28
2016-02-21T00:40:56.630Z,62.34
2016-02-21T00:41:56.585Z,61
2016-02-21T00:42:56.573Z,60.61
2016-02-21T00:43:56.544Z,61.1
2016-02-21T00:44:56.532Z,59.12
2016-02-21T00:45:56.519Z,60.61
2016-02-21T00:46:56.474Z,60.24
2016-02-21T00:47:56.462Z,60.71
2016-02-21T00:48:56.417Z,61.57
2016-02-21T00:49:56.451Z,59.19
2016-02-21T00:50:56.391Z,61.19
2016-02-21T00:51:56.362Z,59.56
2016-02-21T00:52:56.335Z,59.78
2016-02-21T00:53:56.306Z,57.78
2016-02-21T00:54:56.278Z,59.38
2016-02-21T00:55:56.280Z,61.29
2016-02-21T00:56:56.235Z,61.86
2016-02-21T00:57:56.208Z,61.19
2016-02-21T00:58:56.195Z,57.78
2016-02-21T00:59:56.353Z,59.28
2016-02-21T01:00:56.137Z,62.27
2016-02-21T01:01:56.125Z,62.62
2016-02-21T01:02:56.096Z,61.69
2016-02-21T01:03:56.082Z,62.52
2016-02-21T01:04:56.038Z,61.38
2016-02-21T01:05:56.026Z,62.65
2016-02-21T01:06:55.997Z,62.55
2016-02-21T01:07:55.969Z,62.24
2016-02-21T01:08:55.940Z,62.24
2016-02-21T01:09:55.911Z,57.97
2016-02-21T01:10:55.899Z,60.42
2016-02-21T01:11:55.870Z,61.86
2016-02-21T01:12:56.075Z,59.19
2016-02-21T01:13:55.829Z,58.9
2016-02-21T01:14:55.799Z,61.79
2016-02-21T01:15:55.771Z,61.32
2016-02-21T01:16:55.742Z,60.55
2016-02-21T01:17:55.792Z,61.19
2016-02-21T01:18:55.702Z,62.55
2016-02-21T01:19:55.688Z,60.81
2016-02-21T01:20:55.645Z,62.75
2016-02-21T01:21:55.631Z,59.98
2016-02-21T01:22:55.618Z,60.9
2016-02-21T01:23:55.573Z,59.69
2016-02-21T01:24:55.562Z,64.25
2016-02-21T01:25:55.533Z,62.75
2016-02-21T01:26:55.504Z,64.18
2016-02-21T01:27:55.492Z,59.47
2016-02-21T01:28:55.478Z,59.22
2016-02-21T01:29:55.433Z,60.33
2016-02-21T01:30:55.405Z,57.78
2016-02-21T01:31:55.377Z,57.59
2016-02-21T01:32:55.364Z,59.31
2016-02-21T01:33:55.335Z,60.74
2016-02-21T01:34:55.322Z,60.33
2016-02-21T01:35:55.294Z,59.41
2016-02-21T01:36:55.265Z,60.64
2016-02-21T01:37:55.236Z,63.51
2016-02-21T01:38:55.207Z,60.64
2016-02-21T01:39:55.180Z,60.14
2016-02-21T01:40:55.182Z,60.14
2016-02-21T01:41:55.138Z,58.99
2016-02-21T01:42:55.140Z,62.71
2016-02-21T01:43:55.096Z,61.98
2016-02-21T01:44:55.099Z,59.47
2016-02-21T01:45:55.055Z,61.13
2016-02-21T01:46:55.027Z,62.43
2016-02-21T01:47:54.998Z,61.22
2016-02-21T01:48:54.985Z,60.74
2016-02-21T01:49:54.940Z,60.42
2016-02-21T01:50:54.928Z,63.23
2016-02-21T01:51:54.898Z,62.75
2016-02-21T01:52:54.871Z,59.19
2016-02-21T01:53:54.859Z,58.07
2016-02-21T01:54:54.814Z,59.66
2016-02-21T01:55:54.801Z,61.19
2016-02-21T01:56:54.772Z,58.99
2016-02-21T01:57:54.744Z,60.55
2016-02-21T01:58:54.761Z,60.93
2016-02-21T01:59:54.703Z,56.06
2016-02-21T02:00:54.689Z,57.97
2016-02-21T02:01:54.645Z,59.5
2016-02-21T02:02:54.632Z,61.13
2016-02-21T02:03:54.603Z,59.31
2016-02-21T02:04:54.590Z,60.64
2016-02-21T02:05:54.578Z,57.5
2016-02-21T02:06:54.534Z,59.78
2016-02-21T02:07:54.521Z,63.32
2016-02-21T02:08:54.492Z,61.32
2016-02-21T02:09:54.744Z,60.55
2016-02-21T02:10:54.435Z,58.64
2016-02-21T02:11:54.406Z,61.03
2016-02-21T02:12:54.377Z,60.27
2016-02-21T02:13:54.365Z,59.22
2016-02-21T02:14:54.540Z,60.64
2016-02-21T02:15:54.324Z,60.46
2016-02-21T02:16:54.295Z,63.7
2016-02-21T02:17:54.265Z,59.41
2016-02-21T02:18:54.254Z,60.55
2016-02-21T02:19:54.240Z,63.03
2016-02-21T02:20:54.196Z,63.42
2016-02-21T02:21:54.184Z,63.51
2016-02-21T02:22:54.139Z,59.88
2016-02-21T02:23:54.126Z,59.78
2016-02-21T02:24:54.112Z,60.55
2016-02-21T02:25:54.084Z,62.46
2016-02-21T02:26:54.056Z,60.64
2016-02-21T02:27:54.028Z,60.36
2016-02-21T02:28:53.999Z,61.32
2016-02-21T02:29:53.986Z,61.79
2016-02-21T02:30:53.958Z,58.93
2016-02-21T02:31:53.929Z,59.22
2016-02-21T02:32:53.900Z,59.5
2016-02-21T02:33:53.887Z,61.51
2016-02-21T02:34:53.859Z,59.22
2016-02-21T02:35:53.830Z,57.21
2016-02-21T02:36:53.817Z,60.46
2016-02-21T02:37:53.789Z,59.69
2016-02-21T02:38:53.760Z,59.78
2016-02-21T02:39:53.747Z,58.45
2016-02-21T02:40:53.703Z,62.37
2016-02-21T02:41:53.706Z,60.74
2016-02-21T02:42:53.661Z,61.69
2016-02-21T02:43:53.633Z,60.64
2016-02-21T02:44:53.620Z,61.69
2016-02-21T02:45:53.591Z,59.41
2016-02-21T02:46:53.703Z,60.74
2016-02-21T02:47:53.550Z,57.31
2016-02-21T02:48:53.537Z,57.02
2016-02-21T02:49:53.493Z,59.41
2016-02-21T02:50:53.465Z,61.32
2016-02-21T02:51:53.444Z,56.35
2016-02-21T02:52:53.407Z,61.79
2016-02-21T02:53:53.369Z,60.64
2016-02-21T02:54:53.330Z,60.46
2016-02-21T02:55:53.309Z,60.55
2016-02-21T02:56:53.273Z,62.94
2016-02-21T02:57:53.241Z,61.13
2016-02-21T02:58:53.241Z,59.5
2016-02-21T02:59:53.193Z,58.54
2016-02-21T03:00:53.162Z,63.42
2016-02-21T03:01:53.131Z,59.5
2016-02-21T03:02:53.116Z,60.74
2016-02-21T03:03:53.086Z,60.27
2016-02-21T03:04:53.071Z,59.31
2016-02-21T03:05:53.025Z,59.5
2016-02-21T03:06:53.012Z,59.22
2016-02-21T03:07:52.983Z,61.41
2016-02-21T03:08:52.970Z,60.64
2016-02-21T03:09:52.942Z,58.26
2016-02-21T03:10:52.912Z,55.87
2016-02-21T03:11:53.118Z,58.07
2016-02-21T03:12:52.871Z,60.36
2016-02-21T03:13:52.842Z,58.54
2016-02-21T03:14:52.814Z,57.68
2016-02-21T03:15:52.785Z,59.41
2016-02-21T03:16:52.772Z,58.07
2016-02-21T03:17:52.743Z,57.87
2016-02-21T03:18:52.730Z,57.87
2016-02-21T03:19:52.701Z,57.4
2016-02-21T03:20:52.673Z,56.25
2016-02-21T03:21:52.660Z,55.11
2016-02-21T03:22:52.616Z,53.86
2016-02-21T03:23:52.604Z,53.39
2016-02-21T03:24:52.574Z,54.25
2016-02-21T03:25:52.546Z,54.91
2016-02-21T03:26:52.518Z,54.25
2016-02-21T03:27:52.504Z,55.01
2016-02-21T03:28:52.492Z,55.3
2016-02-21T03:29:52.448Z,55.68
2016-02-21T03:30:52.435Z,56.06
2016-02-21T03:31:52.406Z,55.96
2016-02-21T03:32:52.378Z,55.4
2016-02-21T03:33:52.348Z,56.35
2016-02-21T03:34:52.320Z,55.2
2016-02-21T03:35:52.322Z,54.72
2016-02-21T03:36:52.294Z,53.49
2016-02-21T03:37:52.281Z,55.11
2016-02-21T03:38:52.237Z,53.96
2016-02-21T03:39:52.225Z,55.11
2016-02-21T03:40:52.196Z,53.1
2016-02-21T03:41:52.151Z,55.2
2016-02-21T03:42:52.139Z,56.54
2016-02-21T03:43:52.111Z,54.34
2016-02-21T03:44:52.082Z,53
2016-02-21T03:45:52.069Z,55.11
2016-02-21T03:46:52.041Z,52.53
2016-02-21T03:47:52.011Z,51.95
2016-02-21T03:48:52.014Z,51.86
2016-02-21T03:49:51.970Z,51.86
2016-02-21T03:50:51.942Z,52.34
2016-02-21T03:51:51.913Z,51.86
2016-02-21T03:52:51.885Z,52.72
2016-02-21T03:53:51.871Z,52.43
2016-02-21T03:54:51.843Z,51.95
2016-02-21T03:55:51.815Z,52.24
2016-02-21T03:56:51.801Z,52.24
2016-02-21T03:57:51.772Z,52.62
2016-02-21T03:58:51.760Z,51.76
2016-02-21T03:59:51.732Z,51.86
2016-02-21T04:00:51.703Z,51.48
2016-02-21T04:01:51.673Z,51.67
2016-02-21T04:02:51.661Z,52.53
2016-02-21T04:03:51.618Z,51.29
2016-02-21T04:04:51.604Z,50.52
2016-02-21T04:05:51.576Z,51
2016-02-21T04:06:51.547Z,50.62
2016-02-21T04:07:51.519Z,50.62
2016-02-21T04:08:51.755Z,50.33
2016-02-21T04:09:51.477Z,50.81
2016-02-21T04:10:51.447Z,51.48
2016-02-21T04:11:51.435Z,51.19
2016-02-21T04:12:51.408Z,51.29
2016-02-21T04:13:51.378Z,51.19
2016-02-21T04:14:51.350Z,50.43
2016-02-21T04:15:51.336Z,50.62
2016-02-21T04:16:51.308Z,51.95
2016-02-21T04:17:51.280Z,51.86
2016-02-21T04:18:51.267Z,50.52
2016-02-21T04:19:51.239Z,51.57
2016-02-21T04:20:51.225Z,51.86
2016-02-21T04:21:51.182Z,51.86
2016-02-21T04:22:51.168Z,51.48
2016-02-21T04:23:51.140Z,51.09
2016-02-21T04:24:51.111Z,52.05
2016-02-21T04:25:51.082Z,51.67
2016-02-21T04:26:51.070Z,50.9
2016-02-21T04:27:51.057Z,50.9
2016-02-21T04:28:51.029Z,50.33
2016-02-21T04:29:50.999Z,50.52
2016-02-21T04:30:50.970Z,50.33
2016-02-21T04:31:50.942Z,51.76
2016-02-21T04:32:50.915Z,51.86
2016-02-21T04:33:50.901Z,50.62
2016-02-21T04:34:50.873Z,50.43
2016-02-21T04:35:50.844Z,51
2016-02-21T04:36:50.815Z,51.48
2016-02-21T04:37:50.817Z,51
2016-02-21T04:38:50.774Z,50.9
2016-02-21T04:39:50.744Z,50.81
2016-02-21T04:40:50.733Z,51
2016-02-21T04:41:50.703Z,51.38
2016-02-21T04:42:50.675Z,51.09
2016-02-21T04:43:50.646Z,51.76
2016-02-21T04:44:50.618Z,50.62
2016-02-21T04:45:50.605Z,50.71
2016-02-21T04:46:50.577Z,50.62
2016-02-21T04:47:50.564Z,50.52
2016-02-21T04:48:50.535Z,52.05
2016-02-21T04:49:50.507Z,51.86
2016-02-21T04:50:50.477Z,50.9
2016-02-21T04:51:50.449Z,50.62
2016-02-21T04:52:50.435Z,51.19
2016-02-21T04:53:50.407Z,50.81
2016-02-21T04:54:50.396Z,52.34
2016-02-21T04:55:50.382Z,51.19
2016-02-21T04:56:50.338Z,51.48
2016-02-21T04:57:50.324Z,50.9
2016-02-21T04:58:50.296Z,50.62
2016-02-21T04:59:50.345Z,51.76
2016-02-21T05:00:50.239Z,51
2016-02-21T05:01:50.242Z,50.43
2016-02-21T05:02:50.198Z,51
2016-02-21T05:03:50.169Z,50.81
2016-02-21T05:04:50.140Z,51.76
2016-02-21T05:05:50.128Z,50.9
2016-02-21T05:06:50.098Z,51.57
2016-02-21T05:07:50.070Z,51.76
2016-02-21T05:08:50.042Z,51.09
2016-02-21T05:09:50.029Z,52.34
2016-02-21T05:10:50.000Z,51.76
2016-02-21T05:11:49.972Z,51.29
2016-02-21T05:12:49.943Z,53.1
2016-02-21T05:13:49.914Z,52.24
2016-02-21T05:14:49.903Z,52.53
2016-02-21T05:15:49.873Z,52.53
2016-02-21T05:16:49.845Z,53.67
2016-02-21T05:17:49.832Z,53.39
2016-02-21T05:18:49.803Z,52.24
2016-02-21T05:19:49.790Z,51.86
2016-02-21T05:20:49.746Z,52.34
2016-02-21T05:21:49.732Z,52.43
2016-02-21T05:22:49.705Z,53.29
2016-02-21T05:23:49.677Z,51.76
2016-02-21T05:24:49.647Z,51.29
2016-02-21T05:25:49.618Z,52.43
2016-02-21T05:26:49.606Z,51.86
2016-02-21T05:27:49.593Z,52.05
2016-02-21T05:28:49.549Z,52.05
2016-02-21T05:29:49.520Z,51.86
2016-02-21T05:30:49.508Z,52.15
2016-02-21T05:31:49.479Z,51.67
2016-02-21T05:32:49.466Z,52.05
2016-02-21T05:33:49.421Z,52.24
2016-02-21T05:34:49.392Z,51.67
2016-02-21T05:35:49.381Z,53.86
2016-02-21T05:36:49.368Z,53.58
2016-02-21T05:37:49.339Z,53.49
2016-02-21T05:38:49.326Z,53.1
2016-02-21T05:39:49.297Z,51.86
2016-02-21T05:40:49.253Z,52.24
2016-02-21T05:41:49.239Z,52.53
2016-02-21T05:42:49.211Z,52.43
2016-02-21T05:43:49.184Z,52.62
2016-02-21T05:44:49.201Z,51.86
2016-02-21T05:45:49.142Z,52.72
2016-02-21T05:46:49.097Z,51.76
2016-02-21T05:47:49.099Z,51
2016-02-21T05:48:49.055Z,51.48
2016-02-21T05:49:49.043Z,52.34
2016-02-21T05:50:49.014Z,51.86
2016-02-21T05:51:49.002Z,51.19
2016-02-21T05:52:48.958Z,51.48
2016-02-21T05:53:48.944Z,51.86
2016-02-21T05:54:48.931Z,51.19
2016-02-21T05:55:48.887Z,51.19
2016-02-21T05:56:49.046Z,50.81
2016-02-21T05:57:48.846Z,51.67
2016-02-21T05:58:48.818Z,51.29
2016-02-21T05:59:48.804Z,51.09
2016-02-21T06:00:48.760Z,51.09
2016-02-21T06:01:48.746Z,50.52
2016-02-21T06:02:48.750Z,50.52
2016-02-21T06:03:48.689Z,50.52
2016-02-21T06:04:48.677Z,50.71
2016-02-21T06:05:48.649Z,50.33
2016-02-21T06:06:48.620Z,50.62
2016-02-21T06:07:48.607Z,50.62
2016-02-21T06:08:48.578Z,50.52
2016-02-21T06:09:48.565Z,50.81
2016-02-21T06:10:48.520Z,51.09
2016-02-21T06:11:48.508Z,51
2016-02-21T06:12:48.480Z,51
2016-02-21T06:13:48.451Z,50.62
2016-02-21T06:14:48.454Z,51
2016-02-21T06:15:48.409Z,51.76
2016-02-21T06:16:48.397Z,51.76
2016-02-21T06:17:48.353Z,50.62
2016-02-21T06:18:48.325Z,50.62
2016-02-21T06:19:48.311Z,51
2016-02-21T06:20:48.283Z,51.57
2016-02-21T06:21:48.270Z,51.86
2016-02-21T06:22:48.069Z,51.09
2016-02-21T06:23:48.213Z,51.67
2016-02-21T06:24:48.183Z,51.67
2016-02-21T06:25:48.171Z,51
2016-02-21T06:26:48.143Z,51
2016-02-21T06:27:48.114Z,51.95
2016-02-21T06:28:48.101Z,51.76
2016-02-21T06:29:48.057Z,51.19
2016-02-21T06:30:48.043Z,50.71
2016-02-21T06:31:48.031Z,50.71
2016-02-21T06:32:47.986Z,50.81
2016-02-21T06:33:47.974Z,50.81
2016-02-21T06:34:47.946Z,50.43
2016-02-21T06:35:47.917Z,50.33
2016-02-21T06:36:47.888Z,50.62
2016-02-21T06:37:47.875Z,50.43
2016-02-21T06:38:47.846Z,50.33
2016-02-21T06:39:47.833Z,51.57
2016-02-21T06:40:47.789Z,51.67
2016-02-21T06:41:47.776Z,52.05
2016-02-21T06:42:47.764Z,52.15
2016-02-21T06:43:47.720Z,54.72
2016-02-21T06:44:47.706Z,52.43
2016-02-21T06:45:47.724Z,52.43
2016-02-21T06:46:47.649Z,52.81
2016-02-21T06:47:47.637Z,53.39
2016-02-21T06:48:47.592Z,52.34
2016-02-21T06:49:47.580Z,51.76
2016-02-21T06:50:47.566Z,55.96
2016-02-21T06:51:47.569Z,55.58
2016-02-21T06:52:47.508Z,54.15
2016-02-21T06:53:47.590Z,53.29
2016-02-21T06:54:47.469Z,55.58
2016-02-21T06:55:47.424Z,57.87
2016-02-21T06:56:47.411Z,58.16
2016-02-21T06:57:47.397Z,56.35
2016-02-21T06:58:47.291Z,55.96
2016-02-21T06:59:47.340Z,59.22
2016-02-21T07:00:47.312Z,57.21
2016-02-21T07:01:47.283Z,56.54
2016-02-21T07:02:47.255Z,58.16
2016-02-21T07:03:47.242Z,59.31
2016-02-21T07:04:47.213Z,61.41
2016-02-21T07:05:47.185Z,57.4
2016-02-21T07:06:47.156Z,58.54
2016-02-21T07:07:47.143Z,61.13
2016-02-21T07:08:47.115Z,58.45
2016-02-21T07:09:47.101Z,60.27
2016-02-21T07:10:47.057Z,57.87
2016-02-21T07:11:47.045Z,57.68
2016-02-21T07:12:47.016Z,59.02
2016-02-21T07:13:46.987Z,58.36
2016-02-21T07:14:46.975Z,58.93
2016-02-21T07:15:46.945Z,56.82
2016-02-21T07:16:46.917Z,55.2
2016-02-21T07:17:46.905Z,57.59
2016-02-21T07:18:46.876Z,59.78
2016-02-21T07:19:46.847Z,57.87
2016-02-21T07:20:46.819Z,57.87
2016-02-21T07:21:46.791Z,57.31
2016-02-21T07:22:46.777Z,59.31
2016-02-21T07:23:46.749Z,58.64
2016-02-21T07:24:46.752Z,57.21
2016-02-21T07:25:46.707Z,58.36
2016-02-21T07:26:46.680Z,60.46
2016-02-21T07:27:46.666Z,61.32
2016-02-21T07:28:46.621Z,59.69
2016-02-21T07:29:46.608Z,57.68
2016-02-21T07:30:46.595Z,62.27
2016-02-21T07:31:46.552Z,59.31
2016-02-21T07:32:46.539Z,58.07
2016-02-21T07:33:46.526Z,55.87
2016-02-21T07:34:46.496Z,59.02
2016-02-21T07:35:46.468Z,56.54
2016-02-21T07:36:46.471Z,60.17
2016-02-21T07:37:46.412Z,57.11
2016-02-21T07:38:46.383Z,59.41
2016-02-21T07:39:46.371Z,59.69
2016-02-21T07:40:46.342Z,55.68
2016-02-21T07:41:46.329Z,58.73
2016-02-21T07:42:46.315Z,61.32
2016-02-21T07:43:46.271Z,63.6
2016-02-21T07:44:46.258Z,60.27
2016-02-21T07:45:46.215Z,62.65
2016-02-21T07:46:46.201Z,62.65
2016-02-21T07:47:46.173Z,62.37
2016-02-21T07:48:46.144Z,60.64
2016-02-21T07:49:46.116Z,61.13
2016-02-21T07:50:46.414Z,59.31
2016-02-21T07:51:46.074Z,59.59
2016-02-21T07:52:46.062Z,59.22
2016-02-21T07:53:46.033Z,59.41
2016-02-21T07:54:46.005Z,57.87
2016-02-21T07:55:46.069Z,62.08
2016-02-21T07:56:45.978Z,62.94
2016-02-21T07:57:45.933Z,63.13
2016-02-21T07:58:45.922Z,61.22
2016-02-21T07:59:45.893Z,60.36
2016-02-21T08:00:45.849Z,58.45
2016-02-21T08:01:45.836Z,54.44
2016-02-21T08:02:45.807Z,55.4
2016-02-21T08:03:45.779Z,58.93
2016-02-21T08:04:45.750Z,61.79
2016-02-21T08:05:45.737Z,58.93
2016-02-21T08:06:45.724Z,56.45
2016-02-21T08:07:45.696Z,60.27
2016-02-21T08:08:45.668Z,61.51
2016-02-21T08:09:45.638Z,59.41
2016-02-21T08:10:45.610Z,62.94
2016-02-21T08:11:45.582Z,59.78
2016-02-21T08:12:45.568Z,57.4
2016-02-21T08:13:45.556Z,56.35
2016-02-21T08:14:45.527Z,57.78
2016-02-21T08:15:45.498Z,57.31
2016-02-21T08:16:45.470Z,60.46
2016-02-21T08:17:45.473Z,59.41
2016-02-21T08:18:45.428Z,58.93
2016-02-21T08:19:45.400Z,60.36
2016-02-21T08:20:45.370Z,60.17
2016-02-21T08:21:45.359Z,56.54
2016-02-21T08:22:45.330Z,58.45
2016-02-21T08:23:45.317Z,59.59
2016-02-21T08:24:45.288Z,59.12
2016-02-21T08:25:45.259Z,60.27
2016-02-21T08:26:45.230Z,60.64
2016-02-21T08:27:45.202Z,63.03
2016-02-21T08:28:45.189Z,61.03
2016-02-21T08:29:45.161Z,62.75
2016-02-21T08:30:45.133Z,60.74
2016-02-21T08:31:45.104Z,64.37
2016-02-21T08:32:45.091Z,64.85
2016-02-21T08:33:45.062Z,63.73
2016-02-21T08:34:45.034Z,62.65
2016-02-21T08:35:45.035Z,63.73
2016-02-21T08:36:45.008Z,59.31
2016-02-21T08:37:44.963Z,59.22
2016-02-21T08:38:44.951Z,60.27
2016-02-21T08:39:44.921Z,60.84
2016-02-21T08:40:44.893Z,61.79
2016-02-21T08:41:44.912Z,59.88
2016-02-21T08:42:44.883Z,58.64
2016-02-21T08:43:44.824Z,59.78
2016-02-21T08:44:44.826Z,61.35
2016-02-21T08:45:44.782Z,66
2016-02-21T08:46:44.753Z,61.98
2016-02-21T08:47:45.006Z,60.55
2016-02-21T08:48:44.696Z,61.41
2016-02-21T08:49:44.683Z,59.69
2016-02-21T08:50:44.499Z,60.17
2016-02-21T08:51:44.626Z,59.5
2016-02-21T08:52:44.723Z,60.46
2016-02-21T08:53:44.584Z,61.13
2016-02-21T08:54:44.572Z,59.41
2016-02-21T08:55:44.543Z,59.41
2016-02-21T08:56:44.514Z,61.98
2016-02-21T08:57:44.486Z,60.64
2016-02-21T08:58:44.473Z,61.22
2016-02-21T08:59:44.445Z,61.69
2016-02-21T09:00:44.416Z,60.49
2016-02-21T09:01:44.388Z,58.54
2016-02-21T09:02:44.359Z,60.1
2016-02-21T09:03:44.361Z,64.47
2016-02-21T09:04:44.318Z,63.13
2016-02-21T09:05:44.289Z,61.41
2016-02-21T09:06:44.276Z,61.03
2016-02-21T09:07:44.247Z,60.68
2016-02-21T09:08:44.219Z,60.46
2016-02-21T09:09:44.191Z,60.36
2016-02-21T09:10:44.177Z,59.53
2016-02-21T09:11:44.149Z,62.97
2016-02-21T09:12:44.135Z,62.97
2016-02-21T09:13:44.107Z,58.29
2016-02-21T09:14:44.095Z,60.77
2016-02-21T09:15:44.051Z,60.64
2016-02-21T09:16:44.037Z,61.6
2016-02-21T09:17:44.009Z,61.41
2016-02-21T09:18:43.980Z,59.81
2016-02-21T09:19:43.983Z,60.46
2016-02-21T09:20:43.939Z,59.44
2016-02-21T09:21:43.909Z,59.44
2016-02-21T09:22:43.882Z,61.22
2016-02-21T09:23:43.869Z,62.21
2016-02-21T09:24:43.855Z,61.44
2016-02-21T09:25:43.812Z,60.74
2016-02-21T09:26:43.798Z,59.15
2016-02-21T09:27:43.770Z,60.74
2016-02-21T09:28:43.757Z,62.87
2016-02-21T09:29:43.728Z,60.39
2016-02-21T09:30:43.700Z,62.78
2016-02-21T09:31:43.671Z,60.64
2016-02-21T09:32:43.658Z,61.51
2016-02-21T09:33:43.630Z,66.22
2016-02-21T09:34:43.602Z,63.07
2016-02-21T09:35:43.572Z,62.55
2016-02-21T09:36:43.560Z,61.35
2016-02-21T09:37:43.532Z,62.3
2016-02-21T09:38:43.502Z,61.44
2016-02-21T09:39:43.490Z,62.01
2016-02-21T09:40:43.460Z,63.07
2016-02-21T09:41:43.480Z,62.49
2016-02-21T09:42:43.420Z,61.22
2016-02-21T09:43:43.391Z,61.69
2016-02-21T09:44:43.393Z,62.87
2016-02-21T09:45:43.334Z,66
2016-02-21T09:46:43.321Z,64.31
2016-02-21T09:47:43.323Z,64.59
2016-02-21T09:48:43.265Z,61.44
2016-02-21T09:49:43.532Z,64.88
2016-02-21T09:50:43.222Z,64.5
2016-02-21T09:51:43.194Z,66.13
2016-02-21T09:52:43.181Z,61.82
2016-02-21T09:53:43.152Z,62.65
2016-02-21T09:54:43.140Z,65.93
2016-02-21T09:55:43.095Z,61.25
2016-02-21T09:56:43.083Z,61.82
2016-02-21T09:57:43.053Z,65.93
2016-02-21T09:58:43.025Z,63.83
2016-02-21T09:59:43.012Z,62.4
2016-02-21T10:00:42.984Z,60.68
2016-02-21T10:01:42.971Z,61.44
2016-02-21T10:02:42.927Z,62.49
2016-02-21T10:03:42.913Z,61.16
2016-02-21T10:04:42.917Z,66.13
2016-02-21T10:05:42.872Z,65.93
2016-02-21T10:06:42.844Z,65.93
2016-02-21T10:07:42.816Z,66.41
2016-02-21T10:08:42.802Z,64.5
2016-02-21T10:09:42.758Z,66.13
2016-02-21T10:10:42.746Z,64.69
2016-02-21T10:11:42.733Z,64.78
2016-02-21T10:12:42.689Z,64.59
2016-02-21T10:13:42.674Z,63.26
2016-02-21T10:14:42.647Z,62.49
2016-02-21T10:15:42.618Z,66.41
2016-02-21T10:16:42.637Z,65.36
2016-02-21T10:17:42.577Z,61.92
2016-02-21T10:18:42.548Z,62.49
2016-02-21T10:19:42.535Z,59.44
2016-02-21T10:20:42.507Z,59.63
2016-02-21T10:21:42.494Z,61.44
2016-02-21T10:22:42.450Z,61.54
2016-02-21T10:23:42.452Z,63.07
2016-02-21T10:24:42.421Z,62.68
2016-02-21T10:25:42.393Z,62.78
2016-02-21T10:26:42.364Z,60.87
2016-02-21T10:27:42.335Z,62.49
2016-02-21T10:28:42.307Z,63.54
2016-02-21T10:29:42.310Z,59.91
2016-02-21T10:30:42.265Z,63.07
2016-02-21T10:31:42.237Z,63.54
2016-02-21T10:32:42.224Z,66.03
2016-02-21T10:33:42.211Z,60.3
2016-02-21T10:34:42.167Z,60.68
2016-02-21T10:35:42.154Z,62.59
2016-02-21T10:36:41.985Z,63.35
2016-02-21T10:37:42.144Z,64.22
2016-02-21T10:38:42.084Z,66.31
2016-02-21T10:39:42.071Z,62.21
2016-02-21T10:40:42.042Z,65.93
2016-02-21T10:41:42.014Z,64.98
2016-02-21T10:42:41.986Z,62.68
2016-02-21T10:43:41.972Z,62.97
2016-02-21T10:44:41.944Z,66.7
2016-02-21T10:45:41.915Z,63.35
2016-02-21T10:46:42.199Z,62.3
2016-02-21T10:47:41.874Z,61.06
2016-02-21T10:48:41.846Z,64.5
2016-02-21T10:49:41.816Z,66.7
2016-02-21T10:50:41.788Z,65.93
2016-02-21T10:51:41.774Z,61.72
2016-02-21T10:52:41.746Z,64.59
2016-02-21T10:53:41.734Z,63.73
2016-02-21T10:54:41.705Z,64.5
2016-02-21T10:55:41.677Z,62.68
2016-02-21T10:56:41.663Z,62.59
2016-02-21T10:57:41.635Z,64.69
2016-02-21T10:58:41.622Z,62.97
2016-02-21T10:59:41.578Z,66.13
2016-02-21T11:00:41.564Z,62.49
2016-02-21T11:01:41.552Z,64.59
2016-02-21T11:02:41.523Z,64.59
2016-02-21T11:03:41.495Z,66.22
2016-02-21T11:04:41.467Z,66.41
2016-02-21T11:05:41.437Z,66.13
2016-02-21T11:06:41.425Z,65.07
2016-02-21T11:07:41.428Z,63.83
2016-02-21T11:08:41.367Z,66.31
2016-02-21T11:09:41.355Z,67.18
2016-02-21T11:10:41.326Z,64.31
2016-02-21T11:11:41.297Z,63.54
2016-02-21T11:12:41.269Z,67.36
2016-02-21T11:13:41.255Z,64.22
2016-02-21T11:14:41.227Z,66.41
2016-02-21T11:15:41.199Z,66.79
2016-02-21T11:16:41.186Z,61.92
2016-02-21T11:17:41.174Z,65.64
2016-02-21T11:18:41.130Z,66.99
2016-02-21T11:19:41.116Z,66.89
2016-02-21T11:20:41.088Z,66.6
2016-02-21T11:21:41.059Z,67.18
2016-02-21T11:22:41.046Z,66.41
2016-02-21T11:23:41.018Z,65.55
2016-02-21T11:24:40.988Z,64.31
2016-02-21T11:25:40.976Z,67.94
2016-02-21T11:26:40.948Z,66.99
2016-02-21T11:27:40.919Z,64.98
2016-02-21T11:28:40.906Z,66.13
2016-02-21T11:29:40.877Z,63.64
2016-02-21T11:30:40.849Z,64.4
2016-02-21T11:31:40.820Z,65.07
2016-02-21T11:32:40.807Z,68.41
2016-02-21T11:33:40.779Z,68.8
2016-02-21T11:34:40.829Z,64.5
2016-02-21T11:35:40.737Z,65.64
2016-02-21T11:36:40.708Z,65.93
2016-02-21T11:37:40.773Z,60.96
2016-02-21T11:38:40.667Z,63.54
2016-02-21T11:39:40.639Z,66.7
2016-02-21T11:40:40.610Z,67.55
2016-02-21T11:41:40.597Z,66.31
2016-02-21T11:42:40.584Z,67.65
2016-02-21T11:43:40.556Z,68.23
2016-02-21T11:44:40.527Z,64.5
2016-02-21T11:45:40.530Z,63.35
2016-02-21T11:46:40.469Z,65.26
2016-02-21T11:47:40.457Z,62.59
2016-02-21T11:48:40.428Z,62.59
2016-02-21T11:49:40.400Z,61.16
2016-02-21T11:50:40.387Z,59.63
2016-02-21T11:51:40.358Z,60.39
2016-02-21T11:52:40.346Z,61.16
2016-02-21T11:53:40.316Z,62.78
2016-02-21T11:54:40.288Z,61.63
2016-02-21T11:55:40.260Z,66.03
2016-02-21T11:56:40.231Z,63.45
2016-02-21T11:57:40.215Z,66.6
2016-02-21T11:58:40.172Z,65.55
2016-02-21T11:59:40.145Z,66.99
2016-02-21T12:00:40.101Z,65.74
2016-02-21T12:01:40.073Z,67.18
2016-02-21T12:02:40.032Z,63.93
2016-02-21T12:03:39.998Z,66.99
2016-02-21T12:04:39.996Z,65.93
2016-02-21T12:05:39.930Z,66.89
2016-02-21T12:06:39.913Z,63.83
2016-02-21T12:07:39.879Z,62.59
2016-02-21T12:08:39.864Z,65.55
2016-02-21T12:09:39.834Z,66.79
2016-02-21T12:10:39.819Z,65.84
2016-02-21T12:11:39.772Z,66.7
2016-02-21T12:12:39.758Z,68.04
2016-02-21T12:13:39.728Z,66.7
2016-02-21T12:14:39.716Z,65.36
2016-02-21T12:15:39.685Z,67.75
2016-02-21T12:16:39.657Z,66.5
2016-02-21T12:17:39.627Z,67.08
2016-02-21T12:18:39.614Z,67.75
2016-02-21T12:19:39.585Z,69.18
2016-02-21T12:20:39.557Z,65.17
2016-02-21T12:21:39.544Z,64.02
2016-02-21T12:22:39.516Z,64.59
2016-02-21T12:23:39.488Z,64.88
2016-02-21T12:24:39.475Z,67.65
2016-02-21T12:25:39.446Z,67.36
2016-02-21T12:26:39.433Z,66.31
2016-02-21T12:27:39.623Z,67.84
2016-02-21T12:28:39.376Z,67.94
2016-02-21T12:29:39.347Z,65.36
2016-02-21T12:30:39.318Z,66.79
2016-02-21T12:31:39.305Z,68.13
2016-02-21T12:32:39.277Z,60.49
2016-02-21T12:33:39.248Z,61.16
2016-02-21T12:34:39.486Z,64.98
2016-02-21T12:35:39.207Z,66.13
2016-02-21T12:36:39.178Z,65.07
2016-02-21T12:37:39.165Z,65.93
2016-02-21T12:38:39.137Z,64.22
2016-02-21T12:39:39.202Z,64.59
2016-02-21T12:40:39.095Z,64.98
2016-02-21T12:41:39.067Z,66.31
2016-02-21T12:42:39.054Z,67.18
2016-02-21T12:43:39.025Z,67.18
2016-02-21T12:44:38.997Z,66.7
2016-02-21T12:45:38.984Z,65.45
2016-02-21T12:46:38.971Z,68.04
2016-02-21T12:47:38.927Z,64.78
2016-02-21T12:48:38.913Z,64.02
2016-02-21T12:49:38.885Z,65.07
2016-02-21T12:50:38.857Z,66.7
2016-02-21T12:51:38.844Z,66.13
2016-02-21T12:52:38.830Z,64.4
2016-02-21T12:53:38.787Z,66.79
2016-02-21T12:54:38.758Z,64.02
2016-02-21T12:55:38.729Z,66.79
2016-02-21T12:56:38.717Z,66.41